No1 Tokuyama — JK5318 — position and weather

sailwx.info

Track history (hours):
 
Tides and Currents Weather Stations Pressure Air Temp Water Temp Dewpoint Dewpoint Depression Visibility Wind Speed Wind Dir Waves Ship Positions

No1 Tokuyama

Last reported at 2015-Jul-29 10:24 UTC. Time now 2015-Jul-29 20:03 UTC.
Position N 33°57' E 130°26'.

Length 110 m; draft 5.5 m.

Type: Cargo ship. MMSI: 431400487.

Date/timePositionNaut miles runAvg speedWind from/ knotsBaromVisibWave heightAir tempDewpointWater temp
2015-Jul-29 10:24N 33°57' E 130°26'1113.3
2015-Jul-29 09:33N 33°47' E 130°18'1010.1
2015-Jul-29 08:33N 33°37' E 130°22'2 1.5
2015-Jul-29 07:31N 33°37' E 130°24'0 0.0
2015-Jul-29 06:31N 33°37' E 130°24'0 0.0
2015-Jul-29 05:31N 33°37' E 130°24'0 0.1
2015-Jul-29 04:33N 33°37' E 130°24'0 0.0
2015-Jul-29 03:33N 33°37' E 130°24'0 0.1
2015-Jul-29 02:33N 33°37' E 130°24'0 0.0
2015-Jul-29 01:33N 33°37' E 130°24'0 0.0
2015-Jul-29 00:33N 33°37' E 130°24'7 7.2
2015-Jul-28 23:33N 33°41' E 130°16'1211.7
2015-Jul-28 22:31N 33°52' E 130°21'  
2015-Jul-25 11:32N 34°33' E 134°45'1312.9
2015-Jul-25 10:33N 34°38' E 134°60'1211.6
2015-Jul-25 09:33N 34°37' E 135°14'5 5.5
2015-Jul-25 08:33N 34°42' E 135°14'0 0.0
2015-Jul-25 07:33N 34°42' E 135°14'0 0.0
2015-Jul-25 06:33N 34°42' E 135°14'0 0.0
2015-Jul-25 05:27N 34°42' E 135°14'0 0.0
2015-Jul-25 04:33N 34°42' E 135°14'0 0.0
2015-Jul-25 03:18N 34°42' E 135°14'0 0.0
2015-Jul-25 02:30N 34°42' E 135°14'0 0.0
2015-Jul-25 00:30N 34°42' E 135°14'0 0.0
2015-Jul-24 23:33N 34°42' E 135°14'5 5.4
2015-Jul-24 22:34N 34°39' E 135°19'0 0.1
2015-Jul-24 21:29N 34°39' E 135°19'0 0.1
2015-Jul-24 20:28N 34°39' E 135°19'0 0.0
2015-Jul-24 19:29N 34°39' E 135°19'0 0.1
2015-Jul-24 18:29N 34°39' E 135°19'0 0.0
2015-Jul-24 17:29N 34°39' E 135°19'0 0.0
2015-Jul-24 16:28N 34°39' E 135°19'0 0.0
2015-Jul-24 15:29N 34°39' E 135°19'0 0.0
2015-Jul-24 14:28N 34°39' E 135°19'0 0.0
2015-Jul-24 13:29N 34°39' E 135°19'0 0.0
2015-Jul-24 12:22N 34°39' E 135°19'0 0.0
2015-Jul-24 11:29N 34°39' E 135°19'0 0.0
2015-Jul-24 10:23N 34°39' E 135°19'0 0.0
2015-Jul-24 09:29N 34°39' E 135°19'0 0.0
2015-Jul-24 08:28N 34°39' E 135°19'0 0.1
2015-Jul-24 07:29N 34°39' E 135°19'0 0.0
2015-Jul-24 06:23N 34°39' E 135°19'0 0.1
2015-Jul-24 05:29N 34°39' E 135°19'0 0.0
2015-Jul-24 04:29N 34°39' E 135°19'0 0.1
2015-Jul-24 03:29N 34°39' E 135°19'2 1.7
2015-Jul-24 02:34N 34°39' E 135°21'4 4.2
2015-Jul-24 01:33N 34°39' E 135°27'0 0.0
2015-Jul-24 00:30N 34°39' E 135°27'0 0.0
2015-Jul-23 23:30N 34°39' E 135°27'0 0.0
2015-Jul-23 22:30N 34°39' E 135°27'0 0.0
2015-Jul-23 21:30N 34°39' E 135°27'0 0.0
2015-Jul-23 20:30N 34°39' E 135°27'0 0.0
2015-Jul-23 19:24N 34°39' E 135°27'0 0.0
2015-Jul-23 18:30N 34°39' E 135°27'0 0.0
2015-Jul-23 17:30N 34°39' E 135°27'0 0.0
2015-Jul-23 16:30N 34°39' E 135°27'0 0.0
2015-Jul-23 15:30N 34°39' E 135°27'0 0.0
2015-Jul-23 13:30N 34°39' E 135°27'0 0.0
2015-Jul-23 12:30N 34°39' E 135°27'0 0.0
2015-Jul-23 11:24N 34°39' E 135°27'0 0.0
2015-Jul-23 10:30N 34°39' E 135°27'0 0.0
2015-Jul-23 09:30N 34°39' E 135°27'0 0.0
2015-Jul-23 08:30N 34°39' E 135°27'0 0.0
2015-Jul-23 07:33N 34°39' E 135°27'10 9.6
2015-Jul-23 06:34N 34°36' E 135°16'1313.0
2015-Jul-23 05:32N 34°37' E 134°60'1212.3
2015-Jul-23 04:33N 34°40' E 134°45'5 0.8
2015-Jul-22 22:17N 34°41' E 134°40'  
2015-Jul-20 11:05N 34°33' E 134°45'813.3
2015-Jul-20 10:31N 34°36' E 134°54'1111.2
2015-Jul-20 09:33N 34°36' E 135°07'8 8.3
2015-Jul-20 08:33N 34°41' E 135°15'1 0.7
2015-Jul-20 07:26N 34°42' E 135°14'0 0.0
2015-Jul-20 06:32N 34°42' E 135°14'0 0.0
2015-Jul-20 05:26N 34°42' E 135°14'0 0.0
2015-Jul-20 04:32N 34°42' E 135°14'0 0.0
2015-Jul-20 03:20N 34°42' E 135°14'0 0.0
2015-Jul-20 02:26N 34°42' E 135°14'0 0.0
2015-Jul-20 01:32N 34°42' E 135°14'0 0.0
2015-Jul-20 00:32N 34°42' E 135°14'0 0.0
2015-Jul-19 23:33N 34°42' E 135°14'5 5.2
2015-Jul-19 22:33N 34°38' E 135°19'1 1.0
2015-Jul-19 21:32N 34°39' E 135°20'0 0.1
2015-Jul-19 20:32N 34°39' E 135°20'0 0.1
2015-Jul-19 19:32N 34°38' E 135°20'0 0.1
2015-Jul-19 18:34N 34°38' E 135°20'1010.4
2015-Jul-19 17:33N 34°35' E 135°08'1413.2
2015-Jul-19 16:32N 34°34' E 134°51'  
Track history (hours):
 
Tides and Currents Weather Stations Pressure Air Temp Water Temp Dewpoint Dewpoint Depression Visibility Wind Speed Wind Dir Waves Ship Positions

No1 Tokuyama

Last reported at 2015-Jul-29 10:24 UTC. Time now 2015-Jul-29 20:03 UTC.
Position N 33°57' E 130°26'.

Length 110 m; draft 5.5 m.

Type: Cargo ship. MMSI: 431400487.

Date/timePositionNaut miles runAvg speedWind from/ knotsBaromVisibWave heightAir tempDewpointWater temp
2015-Jul-29 10:24N 33°57' E 130°26'1113.3
2015-Jul-29 09:33N 33°47' E 130°18'1010.1
2015-Jul-29 08:33N 33°37' E 130°22'2 1.5
2015-Jul-29 07:31N 33°37' E 130°24'0 0.0
2015-Jul-29 06:31N 33°37' E 130°24'0 0.0
2015-Jul-29 05:31N 33°37' E 130°24'0 0.1
2015-Jul-29 04:33N 33°37' E 130°24'0 0.0
2015-Jul-29 03:33N 33°37' E 130°24'0 0.1
2015-Jul-29 02:33N 33°37' E 130°24'0 0.0
2015-Jul-29 01:33N 33°37' E 130°24'0 0.0
2015-Jul-29 00:33N 33°37' E 130°24'7 7.2
2015-Jul-28 23:33N 33°41' E 130°16'1211.7
2015-Jul-28 22:31N 33°52' E 130°21'  
2015-Jul-25 11:32N 34°33' E 134°45'1312.9
2015-Jul-25 10:33N 34°38' E 134°60'1211.6
2015-Jul-25 09:33N 34°37' E 135°14'5 5.5
2015-Jul-25 08:33N 34°42' E 135°14'0 0.0
2015-Jul-25 07:33N 34°42' E 135°14'0 0.0
2015-Jul-25 06:33N 34°42' E 135°14'0 0.0
2015-Jul-25 05:27N 34°42' E 135°14'0 0.0
2015-Jul-25 04:33N 34°42' E 135°14'0 0.0
2015-Jul-25 03:18N 34°42' E 135°14'0 0.0
2015-Jul-25 02:30N 34°42' E 135°14'0 0.0
2015-Jul-25 00:30N 34°42' E 135°14'0 0.0
2015-Jul-24 23:33N 34°42' E 135°14'5 5.4
2015-Jul-24 22:34N 34°39' E 135°19'0 0.1
2015-Jul-24 21:29N 34°39' E 135°19'0 0.1
2015-Jul-24 20:28N 34°39' E 135°19'0 0.0
2015-Jul-24 19:29N 34°39' E 135°19'0 0.1
2015-Jul-24 18:29N 34°39' E 135°19'0 0.0
2015-Jul-24 17:29N 34°39' E 135°19'0 0.0
2015-Jul-24 16:28N 34°39' E 135°19'0 0.0
2015-Jul-24 15:29N 34°39' E 135°19'0 0.0
2015-Jul-24 14:28N 34°39' E 135°19'0 0.0
2015-Jul-24 13:29N 34°39' E 135°19'0 0.0
2015-Jul-24 12:22N 34°39' E 135°19'0 0.0
2015-Jul-24 11:29N 34°39' E 135°19'0 0.0
2015-Jul-24 10:23N 34°39' E 135°19'0 0.0
2015-Jul-24 09:29N 34°39' E 135°19'0 0.0
2015-Jul-24 08:28N 34°39' E 135°19'0 0.1
2015-Jul-24 07:29N 34°39' E 135°19'0 0.0
2015-Jul-24 06:23N 34°39' E 135°19'0 0.1
2015-Jul-24 05:29N 34°39' E 135°19'0 0.0
2015-Jul-24 04:29N 34°39' E 135°19'0 0.1
2015-Jul-24 03:29N 34°39' E 135°19'2 1.7
2015-Jul-24 02:34N 34°39' E 135°21'4 4.2
2015-Jul-24 01:33N 34°39' E 135°27'0 0.0
2015-Jul-24 00:30N 34°39' E 135°27'0 0.0
2015-Jul-23 23:30N 34°39' E 135°27'0 0.0
2015-Jul-23 22:30N 34°39' E 135°27'0 0.0
2015-Jul-23 21:30N 34°39' E 135°27'0 0.0
2015-Jul-23 20:30N 34°39' E 135°27'0 0.0
2015-Jul-23 19:24N 34°39' E 135°27'0 0.0
2015-Jul-23 18:30N 34°39' E 135°27'0 0.0
2015-Jul-23 17:30N 34°39' E 135°27'0 0.0
2015-Jul-23 16:30N 34°39' E 135°27'0 0.0
2015-Jul-23 15:30N 34°39' E 135°27'0 0.0
2015-Jul-23 13:30N 34°39' E 135°27'0 0.0
2015-Jul-23 12:30N 34°39' E 135°27'0 0.0
2015-Jul-23 11:24N 34°39' E 135°27'0 0.0
2015-Jul-23 10:30N 34°39' E 135°27'0 0.0
2015-Jul-23 09:30N 34°39' E 135°27'0 0.0
2015-Jul-23 08:30N 34°39' E 135°27'0 0.0
2015-Jul-23 07:33N 34°39' E 135°27'10 9.6
2015-Jul-23 06:34N 34°36' E 135°16'1313.0
2015-Jul-23 05:32N 34°37' E 134°60'1212.3
2015-Jul-23 04:33N 34°40' E 134°45'5 0.8
2015-Jul-22 22:17N 34°41' E 134°40'  
2015-Jul-20 11:05N 34°33' E 134°45'813.3
2015-Jul-20 10:31N 34°36' E 134°54'1111.2
2015-Jul-20 09:33N 34°36' E 135°07'8 8.3
2015-Jul-20 08:33N 34°41' E 135°15'1 0.7
2015-Jul-20 07:26N 34°42' E 135°14'0 0.0
2015-Jul-20 06:32N 34°42' E 135°14'0 0.0
2015-Jul-20 05:26N 34°42' E 135°14'0 0.0
2015-Jul-20 04:32N 34°42' E 135°14'0 0.0
2015-Jul-20 03:20N 34°42' E 135°14'0 0.0
2015-Jul-20 02:26N 34°42' E 135°14'0 0.0
2015-Jul-20 01:32N 34°42' E 135°14'0 0.0
2015-Jul-20 00:32N 34°42' E 135°14'0 0.0
2015-Jul-19 23:33N 34°42' E 135°14'5 5.2
2015-Jul-19 22:33N 34°38' E 135°19'1 1.0
2015-Jul-19 21:32N 34°39' E 135°20'0 0.1
2015-Jul-19 20:32N 34°39' E 135°20'0 0.1
2015-Jul-19 19:32N 34°38' E 135°20'0 0.1
2015-Jul-19 18:34N 34°38' E 135°20'1010.4
2015-Jul-19 17:33N 34°35' E 135°08'1413.2
2015-Jul-19 16:32N 34°34' E 134°51'  

Dump ship's entire track history